Time;durP1;ratioP1;P1;durP2;ratioP2;P2;SDS_P1;SDS_P2;PMS_P1;PMS_P2;Temp;Humidity;BMP_temperature;BMP_pressure;BME280_temperature;BME280_humidity;BME280_pressure;Samples;Min_cycle;Max_cycle;Signal;HPM_P1;HPM_P2
2023/04/09 00:01:18;;;;;;;11.27;10.67;;;21.10;55.60;;;;;;5093999;28;20443;-58
2023/04/09 00:03:45;;;;;;;10.90;10.30;;;21.10;55.60;;;;;;5094048;28;20478;-59
2023/04/09 00:06:13;;;;;;;11.30;10.80;;;21.10;55.60;;;;;;5096612;28;20481;-59
2023/04/09 00:08:40;;;;;;;10.33;9.80;;;21.10;55.60;;;;;;5114084;28;20469;-60
2023/04/09 00:11:07;;;;;;;12.03;11.33;;;21.10;55.70;;;;;;5114184;28;20484;-59
2023/04/09 00:13:34;;;;;;;11.23;10.73;;;21.10;55.70;;;;;;5114170;28;20972;-60
2023/04/09 00:16:01;;;;;;;11.50;10.90;;;21.10;55.70;;;;;;5114079;28;20908;-59
2023/04/09 00:18:28;;;;;;;10.23;9.77;;;21.10;55.80;;;;;;5107191;28;20510;-57
2023/04/09 00:20:54;;;;;;;10.60;10.10;;;21.00;55.70;;;;;;5093609;28;20470;-59
2023/04/09 00:23:23;;;;;;;12.20;11.57;;;21.00;55.80;;;;;;5102107;28;20474;-58
2023/04/09 00:25:50;;;;;;;11.17;10.67;;;21.00;55.80;;;;;;5113832;28;20493;-59
2023/04/09 00:28:16;;;;;;;12.07;11.40;;;21.00;55.80;;;;;;5113722;28;20493;-61
2023/04/09 00:30:43;;;;;;;11.67;11.07;;;21.00;55.80;;;;;;5106982;28;20530;-59
2023/04/09 00:33:10;;;;;;;10.60;10.07;;;20.90;55.70;;;;;;5093281;28;20486;-57
2023/04/09 00:35:37;;;;;;;11.17;10.60;;;20.90;55.80;;;;;;5093192;28;20529;-59
2023/04/09 00:38:04;;;;;;;10.23;9.83;;;20.90;55.80;;;;;;5093073;28;20573;-59
2023/04/09 00:40:32;;;;;;;11.87;11.27;;;20.90;55.90;;;;;;5093337;28;20475;-59
2023/04/09 00:42:59;;;;;;;11.40;10.87;;;20.90;55.80;;;;;;5097468;28;20526;-61
2023/04/09 00:45:26;;;;;;;11.10;10.60;;;20.90;55.90;;;;;;5093059;28;20462;-58
2023/04/09 00:47:53;;;;;;;11.57;11.00;;;20.80;55.80;;;;;;5092894;28;20864;-58
2023/04/09 00:50:21;;;;;;;11.90;11.30;;;20.80;55.80;;;;;;5093062;28;20496;-59
2023/04/09 00:52:48;;;;;;;11.57;10.83;;;20.80;55.80;;;;;;5092972;28;20471;-58
2023/04/09 00:55:15;;;;;;;9.57;9.17;;;20.90;55.90;;;;;;5093912;28;20490;-59
2023/04/09 00:57:43;;;;;;;10.90;10.40;;;20.80;55.80;;;;;;5092628;28;20905;-59
2023/04/09 01:00:11;;;;;;;12.00;11.30;;;20.80;55.80;;;;;;5092770;28;20485;-59
2023/04/09 01:02:39;;;;;;;11.67;11.10;;;20.80;55.80;;;;;;5096563;28;20474;-59
2023/04/09 01:05:07;;;;;;;9.97;9.50;;;20.80;55.80;;;;;;5096844;28;20488;-58
2023/04/09 01:07:47;;;;;;;11.50;10.97;;;20.80;55.90;;;;;;5092473;28;20481;-60
2023/04/09 01:10:24;;;;;;;11.10;10.50;;;20.80;55.90;;;;;;5092632;28;20540;-58
2023/04/09 01:13:02;;;;;;;10.77;10.17;;;20.70;55.80;;;;;;5097846;28;20481;-59
2023/04/09 01:15:35;;;;;;;10.77;10.23;;;20.70;55.90;;;;;;5111094;28;20493;-58
2023/04/09 01:18:06;;;;;;;11.57;11.07;;;20.70;55.90;;;;;;5112690;28;20503;-60
2023/04/09 01:20:39;;;;;;;11.30;10.80;;;20.70;55.90;;;;;;5112946;28;20446;-61
2023/04/09 01:23:16;;;;;;;11.40;10.80;;;20.70;56.00;;;;;;5112738;28;20595;-60
2023/04/09 01:25:53;;;;;;;10.50;10.00;;;20.60;55.90;;;;;;5097831;28;20465;-59
2023/04/09 01:28:25;;;;;;;11.70;11.10;;;20.70;56.00;;;;;;5092119;28;20973;-60
2023/04/09 01:30:57;;;;;;;10.97;10.47;;;20.60;56.00;;;;;;5092472;28;20453;-60
2023/04/09 01:33:25;;;;;;;12.87;12.07;;;20.60;56.00;;;;;;5092355;28;20709;-59
2023/04/09 01:35:53;;;;;;;11.77;11.17;;;20.60;56.00;;;;;;5091995;28;20474;-59
2023/04/09 01:38:21;;;;;;;10.93;10.43;;;20.60;56.00;;;;;;5110496;28;20908;-58
2023/04/09 01:40:50;;;;;;;11.77;11.27;;;20.60;56.00;;;;;;5112407;28;20450;-61
2023/04/09 01:43:18;;;;;;;11.10;10.50;;;20.60;56.00;;;;;;5112366;28;20445;-61
2023/04/09 01:45:47;;;;;;;11.03;10.50;;;20.60;56.00;;;;;;5111876;28;20552;-60
2023/04/09 01:48:15;;;;;;;11.27;10.67;;;20.50;55.90;;;;;;5109899;28;20872;-59
2023/04/09 01:50:43;;;;;;;12.07;11.43;;;20.60;56.00;;;;;;5091997;28;20442;-58
2023/04/09 01:53:10;;;;;;;11.77;11.07;;;20.50;55.90;;;;;;5091904;28;20492;-58
2023/04/09 01:55:37;;;;;;;11.53;10.93;;;20.50;55.90;;;;;;5091790;28;20489;-59
2023/04/09 01:58:04;;;;;;;11.10;10.50;;;20.50;55.90;;;;;;5105825;28;20600;-59
2023/04/09 02:00:36;;;;;;;11.80;11.13;;;20.50;56.00;;;;;;5112237;28;20972;-58
2023/04/09 02:03:08;;;;;;;11.30;10.60;;;20.40;55.90;;;;;;5112208;28;20441;-58
2023/04/09 02:05:41;;;;;;;10.93;10.23;;;20.50;56.00;;;;;;5104298;28;20875;-59
2023/04/09 02:08:12;;;;;;;10.70;10.20;;;20.40;56.00;;;;;;5091492;28;20484;-60
2023/04/09 02:10:40;;;;;;;10.63;10.03;;;20.40;56.00;;;;;;5091756;28;20485;-59
2023/04/09 02:13:13;;;;;;;11.13;10.43;;;20.40;56.10;;;;;;5091629;28;20485;-59
2023/04/09 02:15:41;;;;;;;11.43;10.63;;;20.40;56.10;;;;;;5099330;28;20884;-59
2023/04/09 02:18:23;;;;;;;10.43;9.93;;;20.40;56.10;;;;;;5111450;28;20509;-60
2023/04/09 02:20:50;;;;;;;11.07;10.57;;;20.40;56.10;;;;;;5071476;28;20475;-61
2023/04/09 02:23:17;;;;;;;10.90;10.30;;;20.40;56.10;;;;;;5071411;28;20497;-56
2023/04/09 02:25:44;;;;;;;10.90;10.40;;;20.30;56.10;;;;;;5071339;28;20881;-59
2023/04/09 02:28:11;;;;;;;11.17;10.47;;;20.30;56.10;;;;;;5094573;28;20480;-59
2023/04/09 02:30:38;;;;;;;13.00;12.23;;;20.30;56.10;;;;;;5111924;28;20865;-61
2023/04/09 02:33:05;;;;;;;10.60;10.10;;;20.30;56.10;;;;;;5111919;28;20477;-60
2023/04/09 02:35:33;;;;;;;10.90;10.40;;;20.30;56.10;;;;;;5111646;28;20889;-61
2023/04/09 02:38:00;;;;;;;10.23;9.73;;;20.30;56.10;;;;;;5111473;28;20565;-60
2023/04/09 02:40:27;;;;;;;10.37;9.77;;;20.30;56.10;;;;;;5099150;28;20529;-56
2023/04/09 02:42:55;;;;;;;11.00;10.40;;;20.30;56.10;;;;;;5091419;28;20446;-60
2023/04/09 02:45:21;;;;;;;9.83;9.33;;;20.30;56.10;;;;;;5091504;28;20458;-59
2023/04/09 02:47:48;;;;;;;10.37;9.87;;;20.30;56.10;;;;;;5091091;28;20486;-59
2023/04/09 02:50:15;;;;;;;10.97;10.37;;;20.20;56.10;;;;;;5091294;28;20485;-62
2023/04/09 02:52:46;;;;;;;11.77;11.17;;;20.20;56.00;;;;;;5103498;28;20481;-60
2023/04/09 02:55:13;;;;;;;11.63;11.03;;;20.20;56.10;;;;;;5111692;28;20493;-59
2023/04/09 02:57:40;;;;;;;10.87;10.27;;;20.20;56.10;;;;;;5114527;28;20477;-56
2023/04/09 03:00:08;;;;;;;10.77;10.27;;;20.20;56.10;;;;;;5115658;28;20441;-60
2023/04/09 03:02:35;;;;;;;10.03;9.53;;;20.20;56.10;;;;;;5115438;28;20481;-61
2023/04/09 03:05:02;;;;;;;10.77;10.23;;;20.10;56.00;;;;;;5097932;28;20549;-59
2023/04/09 03:07:29;;;;;;;10.90;10.30;;;20.20;56.10;;;;;;5094774;28;20449;-59
2023/04/09 03:09:57;;;;;;;10.87;10.37;;;20.10;56.00;;;;;;5095008;28;20995;-57
2023/04/09 03:12:24;;;;;;;11.83;11.20;;;20.20;56.10;;;;;;5103625;28;20485;-60
2023/04/09 03:14:51;;;;;;;11.10;10.40;;;20.10;56.00;;;;;;5115306;28;20536;-60
2023/04/09 03:17:18;;;;;;;11.10;10.50;;;20.10;56.00;;;;;;5115047;28;20488;-56
2023/04/09 03:19:45;;;;;;;10.80;10.30;;;20.10;56.10;;;;;;5115047;28;20536;-59
2023/04/09 03:22:11;;;;;;;11.00;10.30;;;20.10;56.00;;;;;;5108004;28;20525;-60
2023/04/09 03:24:38;;;;;;;11.30;10.63;;;20.10;56.10;;;;;;5094694;28;20497;-58
2023/04/09 03:27:06;;;;;;;10.57;10.07;;;20.00;56.00;;;;;;5094464;28;20533;-59
2023/04/09 03:29:33;;;;;;;10.87;10.27;;;20.10;56.10;;;;;;5094616;28;20522;-58
2023/04/09 03:32:00;;;;;;;10.20;9.70;;;20.10;56.10;;;;;;5094651;28;20478;-58
2023/04/09 03:34:27;;;;;;;10.50;10.00;;;20.00;56.00;;;;;;5104886;28;20509;-61
2023/04/09 03:36:54;;;;;;;11.17;10.57;;;20.00;56.00;;;;;;5114702;28;20484;-59
2023/04/09 03:39:21;;;;;;;10.67;10.07;;;20.00;56.00;;;;;;5114712;28;20531;-60
2023/04/09 03:41:48;;;;;;;10.03;9.43;;;20.00;56.00;;;;;;5114738;28;20477;-59
2023/04/09 03:44:16;;;;;;;10.27;9.87;;;20.00;56.00;;;;;;5114627;28;20988;-59
2023/04/09 03:46:43;;;;;;;10.80;10.20;;;20.00;56.00;;;;;;5101085;28;20470;-57
2023/04/09 03:49:10;;;;;;;9.83;9.43;;;20.00;56.10;;;;;;5094211;28;20477;-60
2023/04/09 03:51:37;;;;;;;11.77;11.17;;;20.00;56.10;;;;;;5094333;28;20529;-60
2023/04/09 03:54:04;;;;;;;10.93;10.23;;;20.00;56.10;;;;;;5094172;28;20498;-61
2023/04/09 03:56:30;;;;;;;10.93;10.43;;;19.90;56.00;;;;;;5094272;28;20470;-59
2023/04/09 03:58:57;;;;;;;9.93;9.47;;;19.90;56.10;;;;;;5106560;28;20917;-58
2023/04/09 04:01:26;;;;;;;12.10;11.53;;;19.90;56.00;;;;;;5114330;28;20469;-60
2023/04/09 04:03:52;;;;;;;9.97;9.47;;;19.90;56.10;;;;;;5114246;28;20529;-58
2023/04/09 04:06:19;;;;;;;10.23;9.63;;;19.90;56.10;;;;;;5109465;28;20473;-60
2023/04/09 04:08:46;;;;;;;10.60;10.10;;;19.90;56.00;;;;;;5093056;28;20442;-58
2023/04/09 04:11:13;;;;;;;11.50;10.83;;;19.90;56.00;;;;;;5093863;28;20824;-58
2023/04/09 04:13:40;;;;;;;11.80;11.03;;;19.90;56.00;;;;;;5093852;28;20443;-59
2023/04/09 04:16:08;;;;;;;10.10;9.60;;;19.90;56.00;;;;;;5110288;28;20477;-59
2023/04/09 04:18:37;;;;;;;9.60;9.20;;;19.90;56.00;;;;;;5113813;28;20488;-59
2023/04/09 04:21:04;;;;;;;10.23;9.73;;;19.90;56.00;;;;;;5114113;28;20545;-59
2023/04/09 04:23:31;;;;;;;10.20;9.70;;;19.90;56.00;;;;;;5113959;28;20498;-59
2023/04/09 04:25:57;;;;;;;9.60;9.13;;;19.90;56.00;;;;;;5102241;28;20542;-60
2023/04/09 04:28:24;;;;;;;10.10;9.60;;;19.90;56.00;;;;;;5093438;28;20964;-59
2023/04/09 04:30:51;;;;;;;10.73;10.10;;;19.90;56.00;;;;;;5093443;28;20446;-58
2023/04/09 04:33:18;;;;;;;11.23;10.53;;;19.80;55.90;;;;;;5093405;28;20485;-59
2023/04/09 04:35:47;;;;;;;11.57;10.90;;;19.80;55.90;;;;;;5093294;28;20569;-58
2023/04/09 04:38:13;;;;;;;11.33;10.70;;;19.80;55.90;;;;;;5109709;28;20444;-60
2023/04/09 04:40:40;;;;;;;11.20;10.60;;;19.80;56.50;;;;;;5113674;28;20477;-55
2023/04/09 04:43:07;;;;;;;9.47;9.00;;;19.80;56.20;;;;;;5113860;28;20974;-60
2023/04/09 04:45:34;;;;;;;10.50;9.90;;;19.80;56.10;;;;;;5113438;28;20874;-58
2023/04/09 04:48:01;;;;;;;9.00;8.50;;;19.90;56.10;;;;;;5112627;28;20473;-61
2023/04/09 04:50:28;;;;;;;10.37;9.77;;;20.00;56.10;;;;;;5093081;28;20499;-60
2023/04/09 04:52:56;;;;;;;10.90;10.30;;;20.00;55.90;;;;;;5093021;28;20470;-59
2023/04/09 04:55:23;;;;;;;10.73;10.03;;;20.00;55.80;;;;;;5092823;28;20877;-59
2023/04/09 04:57:51;;;;;;;9.43;9.03;;;20.00;55.80;;;;;;5092734;28;20537;-59
2023/04/09 05:00:18;;;;;;;10.10;9.60;;;20.00;55.80;;;;;;5093908;28;20488;-61
2023/04/09 05:02:45;;;;;;;9.20;8.70;;;19.90;55.70;;;;;;5092793;28;20458;-60
2023/04/09 05:05:12;;;;;;;9.27;8.80;;;19.90;55.90;;;;;;5093151;28;20494;-62
2023/04/09 05:07:39;;;;;;;9.17;8.67;;;20.00;56.50;;;;;;5092618;28;20850;-61
2023/04/09 05:10:09;;;;;;;9.67;9.07;;;20.00;56.00;;;;;;5092755;28;20450;-63
2023/04/09 05:12:37;;;;;;;9.80;9.10;;;20.10;55.20;;;;;;5093666;28;20446;-61
2023/04/09 05:15:04;;;;;;;9.70;9.10;;;20.10;54.70;;;;;;5092546;28;20565;-62
2023/04/09 05:17:31;;;;;;;10.60;9.97;;;20.10;54.70;;;;;;5092542;28;20507;-62
2023/04/09 05:19:58;;;;;;;10.40;9.60;;;20.10;54.70;;;;;;5091557;28;20565;-61
2023/04/09 05:22:25;;;;;;;9.97;9.43;;;20.20;55.30;;;;;;5107171;28;20513;-62
2023/04/09 05:24:52;;;;;;;9.65;8.85;;;20.20;55.30;;;;;;5112328;28;20474;-65
2023/04/09 05:27:24;;;;;;;11.97;11.17;;;20.20;55.60;;;;;;5112687;28;20218;-65
2023/04/09 05:29:51;;;;;;;11.47;10.57;;;20.30;55.20;;;;;;5112871;28;20448;-65
2023/04/09 05:32:18;;;;;;;10.07;9.57;;;20.40;54.90;;;;;;5099768;28;20442;-64
2023/04/09 05:34:46;;;;;;;10.80;10.00;;;20.40;55.50;;;;;;5092455;28;20557;-62
2023/04/09 05:37:13;;;;;;;10.67;9.67;;;20.50;56.00;;;;;;5092494;28;20446;-65
2023/04/09 05:39:40;;;;;;;10.90;10.00;;;20.50;56.30;;;;;;5092454;28;20478;-62
2023/04/09 05:42:07;;;;;;;10.90;9.97;;;20.50;57.20;;;;;;5091850;28;20968;-63
2023/04/09 05:44:35;;;;;;;11.37;10.53;;;20.50;57.10;;;;;;5100117;28;20880;-61
2023/04/09 05:47:02;;;;;;;11.30;10.70;;;20.60;57.40;;;;;;5101458;28;20442;-62
2023/04/09 05:49:29;;;;;;;11.97;11.03;;;20.50;57.20;;;;;;5092032;28;20453;-60
2023/04/09 05:51:56;;;;;;;12.97;11.77;;;20.50;57.10;;;;;;5092116;28;20450;-61
2023/04/09 05:54:22;;;;;;;13.30;12.50;;;20.50;57.10;;;;;;5092036;28;20498;-61
2023/04/09 05:56:51;;;;;;;13.27;12.33;;;20.50;57.10;;;;;;5107301;28;20964;-65
2023/04/09 05:59:18;;;;;;;13.50;12.43;;;20.60;57.20;;;;;;5112219;28;20972;-64
2023/04/09 06:01:46;;;;;;;14.00;12.63;;;20.60;56.90;;;;;;5112164;28;20446;-65
2023/04/09 06:04:13;;;;;;;11.80;11.20;;;20.60;56.90;;;;;;5112069;28;20499;-65
2023/04/09 06:06:40;;;;;;;11.43;10.60;;;20.70;56.90;;;;;;5112012;28;20484;-64
2023/04/09 06:09:07;;;;;;;12.67;11.50;;;20.60;57.00;;;;;;5092425;28;20443;-64
2023/04/09 06:11:34;;;;;;;11.30;10.60;;;20.60;56.80;;;;;;5091718;28;20525;-64
2023/04/09 06:14:01;;;;;;;14.37;13.33;;;20.60;56.70;;;;;;5091654;28;20948;-63
2023/04/09 06:16:28;;;;;;;14.30;13.50;;;20.70;56.80;;;;;;5102405;28;20488;-62
2023/04/09 06:18:56;;;;;;;14.33;13.60;;;20.70;56.50;;;;;;5113068;28;20476;-63
2023/04/09 06:21:23;;;;;;;11.77;10.97;;;20.70;56.30;;;;;;5112470;28;20504;-60
2023/04/09 06:23:52;;;;;;;15.37;14.47;;;20.70;56.20;;;;;;5108940;28;20481;-62
2023/04/09 06:26:19;;;;;;;15.20;14.30;;;20.80;56.30;;;;;;5098559;28;20793;-64
2023/04/09 06:28:45;;;;;;;19.98;18.67;;;20.80;56.30;;;;;;5111699;28;21027;-65
2023/04/09 06:31:12;;;;;;;18.00;17.10;;;20.80;56.10;;;;;;5113269;28;20956;-62
2023/04/09 06:33:40;;;;;;;22.33;20.80;;;20.80;56.10;;;;;;5115110;28;20302;-63
2023/04/09 06:36:08;;;;;;;24.10;22.23;;;21.00;55.80;;;;;;5095451;28;20505;-65
2023/04/09 06:38:35;;;;;;;24.60;22.60;;;21.00;55.50;;;;;;5094568;28;20467;-70
2023/04/09 06:41:02;;;;;;;25.50;23.90;;;21.00;55.60;;;;;;5095644;28;20263;-62
2023/04/09 06:43:29;;;;;;;25.20;23.50;;;21.00;55.50;;;;;;5095552;28;20533;-64
2023/04/09 06:45:56;;;;;;;28.10;24.83;;;21.00;55.40;;;;;;5093309;28;20466;-59
2023/04/09 06:48:23;;;;;;;24.90;23.20;;;21.10;55.50;;;;;;5095296;28;20489;-63
2023/04/09 06:50:50;;;;;;;28.10;25.80;;;21.00;55.30;;;;;;5095426;28;20552;-65
2023/04/09 06:53:18;;;;;;;29.23;26.63;;;21.00;55.40;;;;;;5095333;28;20500;-60
2023/04/09 06:55:45;;;;;;;30.53;27.60;;;21.00;55.40;;;;;;5095276;28;20902;-63
2023/04/09 06:58:12;;;;;;;32.30;29.00;;;21.00;55.50;;;;;;5075235;28;20907;-59
2023/04/09 07:00:39;;;;;;;32.00;27.90;;;21.00;55.40;;;;;;5074735;28;20584;-62
2023/04/09 07:03:07;;;;;;;29.10;26.37;;;21.00;55.40;;;;;;5074912;28;20837;-64
2023/04/09 07:05:35;;;;;;;27.48;24.88;;;21.00;55.20;;;;;;5098599;28;20470;-61
2023/04/09 07:08:03;;;;;;;29.40;26.80;;;21.10;55.40;;;;;;5113211;28;20978;-59
2023/04/09 07:10:31;;;;;;;25.67;23.53;;;21.10;55.50;;;;;;5102026;28;20499;-57
2023/04/09 07:12:58;;;;;;;25.97;23.50;;;21.10;55.30;;;;;;5103496;28;20870;-61
2023/04/09 07:15:25;;;;;;;23.97;21.87;;;21.10;55.30;;;;;;5103301;28;20903;-58
2023/04/09 07:17:51;;;;;;;24.60;22.57;;;21.20;55.50;;;;;;5113471;28;20477;-58
2023/04/09 07:20:18;;;;;;;24.23;21.93;;;21.20;55.40;;;;;;5115127;28;20513;-56
2023/04/09 07:22:45;;;;;;;23.73;21.97;;;21.20;55.30;;;;;;5102452;28;20859;-55
2023/04/09 07:25:12;;;;;;;22.97;21.37;;;21.20;55.30;;;;;;5094703;28;20561;-58
2023/04/09 07:27:41;;;;;;;23.20;21.50;;;21.20;55.30;;;;;;5098464;28;20539;-57
2023/04/09 07:30:09;;;;;;;23.73;21.73;;;21.20;55.20;;;;;;5114942;28;20508;-53
2023/04/09 07:32:37;;;;;;;22.90;21.40;;;21.20;55.00;;;;;;5114514;28;20445;-55
2023/04/09 07:35:08;;;;;;;20.77;19.37;;;21.20;55.30;;;;;;5094757;28;20473;-54
2023/04/09 07:37:35;;;;;;;21.97;20.37;;;21.20;55.00;;;;;;5095250;28;20500;-56
2023/04/09 07:40:03;;;;;;;24.17;22.20;;;21.20;55.00;;;;;;5106956;28;20833;-57
2023/04/09 07:42:30;;;;;;;23.57;22.13;;;21.20;54.90;;;;;;5114443;28;20827;-56
2023/04/09 07:44:58;;;;;;;25.00;23.10;;;21.20;55.00;;;;;;5110814;28;20497;-55
2023/04/09 07:47:25;;;;;;;22.00;20.50;;;21.20;54.90;;;;;;5094250;28;20478;-57
2023/04/09 07:49:52;;;;;;;22.10;20.80;;;21.20;54.90;;;;;;5094725;28;20925;-60
2023/04/09 07:52:19;;;;;;;21.57;20.23;;;21.20;55.10;;;;;;5095521;28;20478;-58
2023/04/09 07:54:46;;;;;;;21.03;19.77;;;21.20;55.00;;;;;;5094930;28;20985;-57
2023/04/09 07:57:13;;;;;;;21.47;20.00;;;21.20;55.00;;;;;;5094650;28;20466;-57
2023/04/09 07:59:40;;;;;;;22.03;20.50;;;21.20;55.00;;;;;;5094327;28;20632;-57
2023/04/09 08:02:08;;;;;;;21.13;19.97;;;21.20;55.00;;;;;;5094653;28;20941;-54
2023/04/09 08:04:35;;;;;;;21.00;19.87;;;21.20;54.90;;;;;;5094221;28;20895;-59
2023/04/09 08:07:02;;;;;;;18.55;17.45;;;21.20;55.00;;;;;;5097308;28;20438;-57
2023/04/09 08:09:29;;;;;;;21.40;20.20;;;21.10;54.90;;;;;;5114745;28;20701;-58
2023/04/09 08:11:56;;;;;;;21.77;20.50;;;21.20;55.00;;;;;;5114497;28;20433;-57
2023/04/09 08:14:23;;;;;;;20.93;19.73;;;21.30;54.70;;;;;;5114044;28;20469;-57
2023/04/09 08:16:50;;;;;;;20.43;19.30;;;21.20;54.50;;;;;;5114302;28;20477;-57
2023/04/09 08:19:19;;;;;;;20.67;19.47;;;21.30;54.70;;;;;;5113664;28;20485;-56
2023/04/09 08:21:47;;;;;;;18.90;17.70;;;21.20;54.50;;;;;;5113164;28;20441;-59
2023/04/09 08:24:15;;;;;;;20.97;19.77;;;21.20;54.60;;;;;;5114280;28;20474;-62
2023/04/09 08:26:43;;;;;;;20.43;19.33;;;21.30;54.60;;;;;;5114053;28;20538;-61
2023/04/09 08:29:12;;;;;;;22.47;21.37;;;21.20;54.40;;;;;;5113932;28;20478;-61
2023/04/09 08:31:39;;;;;;;20.77;19.57;;;21.20;54.40;;;;;;5113910;28;20837;-61
2023/04/09 08:34:06;;;;;;;20.70;19.50;;;21.10;54.50;;;;;;5113863;28;20512;-62
2023/04/09 08:36:35;;;;;;;19.57;18.50;;;21.10;54.60;;;;;;5113766;28;20481;-62
2023/04/09 08:39:02;;;;;;;20.10;19.10;;;21.10;54.70;;;;;;5113691;28;20445;-60
2023/04/09 08:41:29;;;;;;;20.40;19.30;;;21.10;54.60;;;;;;5115362;28;20513;-61
2023/04/09 08:43:57;;;;;;;20.03;18.63;;;21.10;54.40;;;;;;5115498;28;20474;-62
2023/04/09 08:46:24;;;;;;;20.30;19.20;;;21.10;53.90;;;;;;5113564;28;20477;-69
2023/04/09 08:48:52;;;;;;;20.47;19.17;;;21.10;53.70;;;;;;5113416;28;20438;-65
2023/04/09 08:51:20;;;;;;;20.90;19.80;;;21.10;53.10;;;;;;5096909;28;20445;-65
2023/04/09 08:53:55;;;;;;;19.90;18.90;;;21.10;52.50;;;;;;5092976;28;20868;-69
2023/04/09 08:56:22;;;;;;;19.90;19.00;;;21.00;53.20;;;;;;5093269;28;20475;-69
2023/04/09 08:58:50;;;;;;;18.60;17.70;;;21.00;52.60;;;;;;5092711;28;20871;-68
2023/04/09 09:01:21;;;;;;;19.50;18.50;;;21.00;52.30;;;;;;5092605;28;20514;-65
2023/04/09 09:03:56;;;;;;;18.93;17.97;;;21.00;51.90;;;;;;5110653;28;20437;-66
2023/04/09 09:06:25;;;;;;;19.30;18.30;;;21.00;51.10;;;;;;5113162;28;20492;-65
2023/04/09 09:09:09;;;;;;;12.15;11.05;;;21.00;51.50;;;;;;5112259;28;20435;-67
2023/04/09 09:11:37;;;;;;;11.27;10.77;;;21.00;51.90;;;;;;5110827;28;20195;-64
2023/04/09 09:14:06;;;;;;;11.10;10.60;;;21.10;52.10;;;;;;5111416;28;20991;-64
2023/04/09 09:16:34;;;;;;;11.60;10.80;;;21.10;52.20;;;;;;5095121;28;20469;-62
2023/04/09 09:19:01;;;;;;;12.30;11.60;;;21.10;52.20;;;;;;5112850;28;20442;-62
2023/04/09 09:21:29;;;;;;;11.90;11.20;;;21.10;51.90;;;;;;5112849;28;20526;-63
2023/04/09 09:23:56;;;;;;;11.00;10.50;;;21.00;51.70;;;;;;5112764;28;20438;-63
2023/04/09 09:26:27;;;;;;;12.77;12.10;;;21.00;52.20;;;;;;5111100;28;20469;-64
2023/04/09 09:28:55;;;;;;;10.80;10.30;;;21.00;52.30;;;;;;5112532;28;20451;-59
2023/04/09 09:31:23;;;;;;;11.20;10.60;;;21.00;52.30;;;;;;5112623;28;20445;-64
2023/04/09 09:33:50;;;;;;;11.27;10.67;;;21.00;52.30;;;;;;5112471;28;20438;-64
2023/04/09 09:36:31;;;;;;;11.13;10.67;;;21.10;52.40;;;;;;5094203;28;20485;-66
2023/04/09 09:39:02;;;;;;;13.25;12.55;;;21.10;52.40;;;;;;5088215;28;20502;-63
2023/04/09 09:41:30;;;;;;;13.07;12.47;;;21.00;52.60;;;;;;5098926;28;20247;-60
2023/04/09 09:43:57;;;;;;;12.60;11.97;;;21.10;52.60;;;;;;5112352;28;20808;-61
2023/04/09 09:46:27;;;;;;;12.80;12.20;;;21.10;52.70;;;;;;5110841;28;20478;-62
2023/04/09 09:48:54;;;;;;;12.40;11.80;;;21.10;53.20;;;;;;5092605;28;20442;-63
2023/04/09 09:51:26;;;;;;;12.30;11.60;;;21.00;52.80;;;;;;5101305;28;20442;-60
2023/04/09 09:53:55;;;;;;;12.33;11.83;;;21.00;52.90;;;;;;5095526;28;20438;-61
2023/04/09 09:56:31;;;;;;;13.90;13.13;;;21.00;53.00;;;;;;5105671;28;20448;-62
2023/04/09 09:59:06;;;;;;;11.97;11.37;;;21.00;53.20;;;;;;5091826;28;20450;-59
2023/04/09 10:01:33;;;;;;;12.03;11.53;;;21.00;53.20;;;;;;5093119;28;20900;-63
2023/04/09 10:04:01;;;;;;;13.30;12.70;;;21.00;53.30;;;;;;5094035;28;20861;-63
2023/04/09 10:06:29;;;;;;;12.13;11.53;;;20.90;53.00;;;;;;5098821;28;20494;-61
2023/04/09 10:08:58;;;;;;;12.63;12.03;;;20.90;53.40;;;;;;5101728;28;20499;-65
2023/04/09 10:11:26;;;;;;;12.07;11.57;;;21.00;53.40;;;;;;5101443;28;20446;-63
2023/04/09 10:13:57;;;;;;;12.77;12.13;;;21.00;53.20;;;;;;5094025;28;20533;-63
2023/04/09 10:16:25;;;;;;;13.00;12.07;;;20.90;53.20;;;;;;5091662;28;20442;-60
2023/04/09 10:18:53;;;;;;;13.23;12.33;;;21.00;53.90;;;;;;5091548;28;20817;-61
2023/04/09 10:21:28;;;;;;;13.83;12.63;;;21.00;54.00;;;;;;5091633;28;20925;-63
2023/04/09 10:23:56;;;;;;;9.80;9.40;;;21.00;54.00;;;;;;5097490;28;20480;-60
2023/04/09 10:26:26;;;;;;;10.17;9.50;;;21.00;54.00;;;;;;5099644;28;20529;-61
2023/04/09 10:29:07;;;;;;;8.87;8.50;;;21.00;54.00;;;;;;5106191;28;20529;-61
2023/04/09 10:31:54;;;;;;;10.00;9.40;;;21.00;53.80;;;;;;5112591;28;20478;-61
2023/04/09 10:34:23;;;;;;;9.47;8.70;;;21.00;53.60;;;;;;5112057;28;20526;-61
2023/04/09 10:36:52;;;;;;;10.27;9.67;;;21.00;53.50;;;;;;5111877;28;20438;-61
2023/04/09 10:39:19;;;;;;;10.70;9.00;;;21.00;53.50;;;;;;5111860;28;20441;-60
2023/04/09 10:41:47;;;;;;;9.80;9.07;;;20.90;53.30;;;;;;5111947;28;20921;-61
2023/04/09 10:44:21;;;;;;;9.43;8.80;;;20.90;53.30;;;;;;5112095;28;20497;-61
2023/04/09 10:46:48;;;;;;;8.70;8.40;;;20.80;53.30;;;;;;5112367;28;20484;-60
2023/04/09 10:49:21;;;;;;;9.77;9.20;;;20.80;53.20;;;;;;5112558;28;20445;-61
2023/04/09 10:52:01;;;;;;;8.77;8.37;;;20.80;53.20;;;;;;5112172;28;20941;-61
2023/04/09 10:54:42;;;;;;;8.50;8.20;;;20.80;53.20;;;;;;5111833;28;21092;-60
2023/04/09 10:57:27;;;;;;;9.03;8.53;;;20.70;53.20;;;;;;5111556;28;20520;-61
2023/04/09 10:59:55;;;;;;;8.53;8.13;;;20.70;53.20;;;;;;5111752;28;20444;-60
2023/04/09 11:03:00;;;;;;;9.10;8.50;;;20.70;53.20;;;;;;5111654;28;20586;-61
2023/04/09 11:05:32;;;;;;;8.67;8.27;;;20.60;53.20;;;;;;5111715;28;20465;-61
2023/04/09 11:08:05;;;;;;;8.97;8.50;;;20.70;53.80;;;;;;5111380;28;20858;-60
2023/04/09 11:10:32;;;;;;;8.60;8.23;;;20.60;53.20;;;;;;5111481;28;20517;-61
2023/04/09 11:12:59;;;;;;;8.73;8.43;;;20.60;53.20;;;;;;5113021;28;20477;-60
2023/04/09 11:15:26;;;;;;;9.20;8.40;;;20.50;53.20;;;;;;5112126;28;20505;-60
2023/04/09 11:17:53;;;;;;;9.03;8.63;;;20.50;53.20;;;;;;5113131;28;20878;-61
2023/04/09 11:20:22;;;;;;;11.00;8.60;;;20.50;53.20;;;;;;5115137;28;21015;-61
2023/04/09 11:22:52;;;;;;;8.13;7.73;;;20.50;53.20;;;;;;5115168;28;20492;-60
2023/04/09 11:25:20;;;;;;;8.43;8.10;;;20.40;53.10;;;;;;5115053;28;20493;-60
2023/04/09 11:27:47;;;;;;;8.73;8.33;;;20.40;53.10;;;;;;5114825;28;20485;-61
2023/04/09 11:30:14;;;;;;;8.80;8.50;;;20.40;53.10;;;;;;5114992;28;20476;-61
2023/04/09 11:32:41;;;;;;;7.70;7.40;;;20.40;53.20;;;;;;5114981;28;20917;-60
2023/04/09 11:35:13;;;;;;;8.20;7.80;;;20.50;53.30;;;;;;5115362;28;20508;-61
2023/04/09 11:37:41;;;;;;;9.20;8.90;;;20.40;53.20;;;;;;5114753;28;20453;-61
2023/04/09 11:40:16;;;;;;;8.13;7.83;;;20.40;53.20;;;;;;5114790;28;20441;-62
2023/04/09 11:42:43;;;;;;;9.17;8.47;;;20.40;53.20;;;;;;5114882;28;20798;-61
2023/04/09 11:45:11;;;;;;;8.77;8.40;;;20.40;53.20;;;;;;5114623;28;20500;-61
2023/04/09 11:47:40;;;;;;;8.13;7.83;;;20.40;53.30;;;;;;5114526;28;20469;-62
2023/04/09 11:50:09;;;;;;;8.73;8.33;;;20.40;53.30;;;;;;5114722;28;20450;-61
2023/04/09 11:52:36;;;;;;;7.97;7.57;;;20.30;53.20;;;;;;5114669;28;20477;-61
2023/04/09 11:55:03;;;;;;;8.90;8.40;;;20.30;53.20;;;;;;5114537;28;20892;-62
2023/04/09 11:57:42;;;;;;;8.90;8.50;;;20.30;53.20;;;;;;5114318;28;20453;-61
2023/04/09 12:00:12;;;;;;;8.67;8.37;;;20.40;53.30;;;;;;5114415;28;20445;-61
2023/04/09 12:02:40;;;;;;;8.73;8.33;;;20.30;53.10;;;;;;5114358;28;21015;-61
2023/04/09 12:05:12;;;;;;;8.20;7.90;;;20.30;53.10;;;;;;5114296;28;20464;-61
2023/04/09 12:07:40;;;;;;;8.80;8.07;;;20.40;53.20;;;;;;5114204;28;20477;-61
2023/04/09 12:10:10;;;;;;;8.07;7.77;;;20.30;53.10;;;;;;5114232;28;20441;-61
2023/04/09 12:12:42;;;;;;;8.30;7.83;;;20.30;53.10;;;;;;5114317;28;20463;-60
2023/04/09 12:15:20;;;;;;;8.50;8.20;;;20.30;53.10;;;;;;5114066;28;20504;-61
2023/04/09 12:17:51;;;;;;;8.17;7.87;;;20.30;53.00;;;;;;5113956;28;20452;-61
2023/04/09 12:20:32;;;;;;;8.70;8.40;;;20.30;53.00;;;;;;5114061;28;20469;-62
2023/04/09 12:23:02;;;;;;;7.83;7.63;;;20.30;53.00;;;;;;5114053;28;20468;-61
2023/04/09 12:25:29;;;;;;;8.00;7.70;;;20.30;53.00;;;;;;5114006;28;20470;-61
2023/04/09 12:27:58;;;;;;;7.87;7.67;;;20.30;53.00;;;;;;5113360;28;20598;-62
2023/04/09 12:30:25;;;;;;;7.73;7.53;;;20.30;53.00;;;;;;5113871;28;20446;-62
2023/04/09 12:32:54;;;;;;;8.33;8.03;;;20.30;53.00;;;;;;5113892;28;20471;-61
2023/04/09 12:35:21;;;;;;;8.00;7.70;;;20.30;52.90;;;;;;5113632;28;20480;-61
2023/04/09 12:37:48;;;;;;;8.03;7.73;;;20.40;53.00;;;;;;5113480;28;20479;-61
2023/04/09 12:40:16;;;;;;;8.40;8.00;;;20.40;53.00;;;;;;5113681;28;20528;-61